Time;durP1;ratioP1;P1;durP2;ratioP2;P2;SDS_P1;SDS_P2;PMS_P1;PMS_P2;Temp;Humidity;BMP_temperature;BMP_pressure;BME280_temperature;BME280_humidity;BME280_pressure;Samples;Min_cycle;Max_cycle;Signal;HPM_P1;HPM_P2
2022/06/11 00:07:58;;;;;;;7.75;3.20;;;;;;;14.51;100.00;100983.50;20573047;28;20054;-67
2022/06/11 00:18:00;;;;;;;5.88;2.95;;;;;;;14.51;100.00;100987.91;20584114;28;20055;-68
2022/06/11 00:28:03;;;;;;;6.18;2.80;;;;;;;14.44;100.00;100987.16;20587195;28;20514;-67
2022/06/11 00:38:05;;;;;;;6.00;2.90;;;;;;;14.22;100.00;100992.00;20585497;28;20113;-68
2022/06/11 00:48:13;;;;;;;7.07;3.10;;;;;;;13.88;100.00;100997.13;20585805;28;20046;-67
2022/06/11 00:58:39;;;;;;;6.72;3.25;;;;;;;14.18;100.00;100979.84;20585126;28;20553;-68
2022/06/11 01:09:05;;;;;;;7.10;3.38;;;;;;;14.45;100.00;100977.47;20578779;28;20070;-70
2022/06/11 01:19:21;;;;;;;7.00;2.80;;;;;;;14.27;100.00;100978.75;20583380;28;20467;-65
2022/06/11 01:29:50;;;;;;;7.57;3.17;;;;;;;14.11;100.00;100968.53;20580895;28;20086;-65
2022/06/11 01:40:01;;;;;;;4.63;2.50;;;;;;;14.12;100.00;100972.91;20579129;28;20093;-65
2022/06/11 01:50:07;;;;;;;5.85;2.50;;;;;;;14.04;100.00;100966.97;20580642;28;20047;-65
2022/06/11 02:00:16;;;;;;;6.57;2.70;;;;;;;13.85;100.00;100971.72;20579879;28;20484;-64
2022/06/11 02:10:49;;;;;;;6.50;2.67;;;;;;;13.61;100.00;100977.47;20579887;28;20081;-65
2022/06/11 02:21:02;;;;;;;5.63;2.85;;;;;;;13.51;100.00;100982.03;20576080;28;20057;-64
2022/06/11 02:31:08;;;;;;;5.85;2.97;;;;;;;13.35;100.00;100981.44;20577794;28;20047;-65
2022/06/11 02:41:14;;;;;;;7.30;3.58;;;;;;;13.34;100.00;100984.97;20575828;28;20109;-65
2022/06/11 02:51:17;;;;;;;5.85;2.75;;;;;;;13.17;100.00;100986.09;20576273;28;20050;-65
2022/06/11 03:01:20;;;;;;;7.10;2.92;;;;;;;13.20;100.00;100991.34;20575659;28;20046;-65
2022/06/11 03:11:22;;;;;;;6.18;3.15;;;;;;;12.84;100.00;100993.69;20575446;28;20042;-65
2022/06/11 03:21:24;;;;;;;6.63;3.13;;;;;;;12.89;100.00;100997.09;20575010;28;20051;-65
2022/06/11 03:31:26;;;;;;;11.88;3.20;;;;;;;12.84;100.00;101004.19;20574576;28;20454;-65
2022/06/11 03:41:27;;;;;;;6.03;2.90;;;;;;;12.82;100.00;101014.69;20573484;28;20427;-65
2022/06/11 03:51:29;;;;;;;7.75;3.65;;;;;;;12.84;100.00;101035.72;20583357;28;20043;-65
2022/06/11 04:01:31;;;;;;;6.00;2.90;;;;;;;13.00;100.00;101034.59;20588751;28;20503;-65
2022/06/11 04:11:33;;;;;;;8.52;3.33;;;;;;;13.36;100.00;101037.53;20588416;28;20058;-65
2022/06/11 04:21:36;;;;;;;7.55;3.28;;;;;;;13.70;100.00;101037.84;20587724;28;20420;-64
2022/06/11 04:31:38;;;;;;;7.53;3.42;;;;;;;14.01;100.00;101051.25;20585543;28;20101;-67
2022/06/11 04:41:44;;;;;;;4.90;3.15;;;;;;;14.26;100.00;101040.25;20584590;28;20055;-67
2022/06/11 04:51:45;;;;;;;5.43;2.58;;;;;;;15.84;100.00;101034.75;20585319;28;20490;-67
2022/06/11 05:01:47;;;;;;;9.23;3.40;;;;;;;16.13;99.95;101042.72;20583579;28;20050;-67
2022/06/11 05:11:50;;;;;;;5.82;3.17;;;;;;;16.18;100.00;101034.66;20584167;28;20074;-69
2022/06/11 05:21:53;;;;;;;7.43;3.45;;;;;;;16.25;98.48;101045.94;20583303;28;20427;-65
2022/06/11 05:31:54;;;;;;;6.45;2.70;;;;;;;16.38;98.75;101042.00;20581645;28;20047;-65
2022/06/11 05:41:59;;;;;;;6.50;2.90;;;;;;;16.62;98.93;101051.88;20580177;28;20496;-65
2022/06/11 05:52:04;;;;;;;9.32;3.78;;;;;;;16.85;100.00;101058.25;20580439;28;20047;-65
2022/06/11 06:02:10;;;;;;;8.30;3.85;;;;;;;17.07;99.25;101055.81;20579322;28;20393;-64
2022/06/11 06:12:13;;;;;;;7.75;3.90;;;;;;;17.36;99.42;101065.44;20578874;28;20086;-65
2022/06/11 06:22:15;;;;;;;12.02;3.63;;;;;;;17.71;97.96;101056.28;20578684;28;20097;-65
2022/06/11 06:32:18;;;;;;;7.93;3.50;;;;;;;18.10;94.85;101069.94;20577441;28;20051;-64
2022/06/11 06:42:19;;;;;;;7.00;2.88;;;;;;;18.42;93.67;101062.59;20575472;28;20051;-65
2022/06/11 06:52:22;;;;;;;7.13;3.13;;;;;;;18.76;88.45;101064.84;20575941;28;20054;-65
2022/06/11 07:02:24;;;;;;;8.75;2.97;;;;;;;19.20;87.76;101060.41;20572009;28;20050;-65
2022/06/11 07:12:25;;;;;;;7.07;3.05;;;;;;;19.48;83.82;101053.97;20567679;28;20053;-65
2022/06/11 07:22:31;;;;;;;5.60;2.90;;;;;;;19.79;83.69;101056.22;20570454;28;20479;-65
2022/06/11 07:32:35;;;;;;;5.85;2.42;;;;;;;20.10;82.53;101058.38;20583675;28;20042;-65
2022/06/11 07:42:37;;;;;;;6.57;2.20;;;;;;;20.49;77.31;101044.22;20582838;28;20554;-65
2022/06/11 07:52:40;;;;;;;5.85;2.97;;;;;;;20.66;76.96;101057.59;20582647;28;20641;-65
2022/06/11 08:02:41;;;;;;;6.15;2.42;;;;;;;21.05;75.34;101053.97;20580747;28;20508;-66
2022/06/11 08:12:43;;;;;;;7.68;2.70;;;;;;;21.40;71.54;101051.38;20580947;28;20054;-66
2022/06/11 08:22:44;;;;;;;10.82;2.75;;;;;;;21.79;69.97;101048.47;20580459;28;20062;-65
2022/06/11 08:32:47;;;;;;;7.15;2.70;;;;;;;21.98;67.59;101051.03;20578899;28;20117;-65
2022/06/11 08:42:59;;;;;;;6.22;2.55;;;;;;;22.72;60.23;101053.28;20578976;28;20117;-65
2022/06/11 08:53:02;;;;;;;6.78;2.15;;;;;;;22.83;63.96;101050.00;20578379;28;20184;-66
2022/06/11 09:03:30;;;;;;;6.47;2.03;;;;;;;23.26;56.06;101032.41;20577822;28;20073;-66
2022/06/11 09:13:59;;;;;;;6.97;2.30;;;;;;;23.70;58.53;101027.09;20577769;28;20503;-66
2022/06/11 09:24:25;;;;;;;5.47;1.75;;;;;;;24.34;53.08;101011.56;20575996;28;20054;-66
2022/06/11 09:34:35;;;;;;;6.45;1.80;;;;;;;24.75;46.77;101010.72;20573856;28;20113;-66
2022/06/11 09:44:47;;;;;;;5.75;1.80;;;;;;;25.40;43.42;101005.53;20572755;28;20046;-66
2022/06/11 09:55:07;;;;;;;6.65;2.13;;;;;;;25.92;44.67;101010.00;20573538;28;20046;-66
2022/06/11 10:05:18;;;;;;;5.55;2.10;;;;;;;26.08;45.11;101015.13;20571799;28;20050;-66
2022/06/11 10:15:32;;;;;;;4.70;1.77;;;;;;;25.22;45.19;101010.28;20571440;28;20049;-65
2022/06/11 10:25:55;;;;;;;5.30;1.67;;;;;;;24.88;44.41;101005.44;20570857;28;20552;-66
2022/06/11 10:36:10;;;;;;;6.50;1.80;;;;;;;25.45;47.85;101010.56;20569674;28;20556;-66
2022/06/11 10:46:17;;;;;;;6.18;1.70;;;;;;;25.95;43.65;100998.16;20568713;28;20057;-65
2022/06/11 10:56:25;;;;;;;6.43;2.00;;;;;;;26.19;42.21;101001.78;20568805;28;20051;-66
2022/06/11 11:06:34;;;;;;;4.53;1.30;;;;;;;25.33;41.96;100988.97;20568031;28;20051;-66
2022/06/11 11:16:37;;;;;;;4.55;1.50;;;;;;;25.24;43.32;100981.56;20567559;28;20065;-66
2022/06/11 11:26:58;;;;;;;7.83;2.10;;;;;;;25.51;46.22;100972.59;20566686;28;20051;-66
2022/06/11 11:37:12;;;;;;;5.85;2.17;;;;;;;25.53;45.49;100960.78;20566241;28;20045;-66
2022/06/11 11:47:17;;;;;;;;;;;;;;;25.53;44.08;100962.63;20567308;28;20063;-66
2022/06/11 11:57:20;;;;;;;7.43;1.93;;;;;;;25.52;44.99;100947.50;20566255;28;19929;-66
2022/06/11 12:07:35;;;;;;;5.30;1.90;;;;;;;25.67;45.29;100941.06;20566607;28;20065;-67
2022/06/11 12:17:54;;;;;;;7.25;1.95;;;;;;;25.81;44.61;100937.44;20580786;28;20049;-66
2022/06/11 12:27:56;;;;;;;4.28;1.80;;;;;;;25.58;44.17;100928.28;20579881;28;20086;-66
2022/06/11 12:38:17;;;;;;;6.97;1.75;;;;;;;25.87;44.77;100926.25;20578935;28;20047;-66
2022/06/11 12:48:18;;;;;;;8.15;2.38;;;;;;;25.72;44.29;100919.28;20578583;28;20051;-66
2022/06/11 12:58:39;;;;;;;6.57;1.67;;;;;;;25.98;41.72;100925.50;20577873;28;20129;-66
2022/06/11 13:08:49;;;;;;;4.15;1.38;;;;;;;26.32;39.66;100914.03;20576625;28;20529;-67
2022/06/11 13:19:03;;;;;;;5.32;1.58;;;;;;;26.23;40.57;100908.47;20575923;28;20047;-68
2022/06/11 13:29:25;;;;;;;4.00;1.55;;;;;;;26.41;44.09;100898.22;20575176;28;20058;-69
2022/06/11 13:39:32;;;;;;;7.03;2.30;;;;;;;26.77;44.29;100890.09;20573837;28;20066;-68
2022/06/11 13:49:59;;;;;;;6.68;1.60;;;;;;;26.29;42.84;100883.88;20574110;28;20050;-68
2022/06/11 14:00:35;;;;;;;5.50;1.60;;;;;;;26.72;39.85;100862.72;20573179;28;20065;-68
2022/06/11 14:10:40;;;;;;;4.70;1.60;;;;;;;27.25;37.03;100857.75;20571971;28;20047;-68
2022/06/11 14:20:54;;;;;;;5.50;1.42;;;;;;;27.71;37.61;100856.84;20570913;28;20062;-68
2022/06/11 14:30:59;;;;;;;5.32;1.25;;;;;;;27.00;35.27;100847.19;20570183;28;20416;-65
2022/06/11 14:41:07;;;;;;;6.22;1.60;;;;;;;27.27;36.91;100850.44;20569648;28;20491;-65
2022/06/11 14:51:14;;;;;;;3.63;1.35;;;;;;;27.09;38.25;100841.13;20569669;28;20050;-68
2022/06/11 15:01:51;;;;;;;5.68;1.40;;;;;;;27.35;36.59;100833.69;20568025;28;20496;-69
2022/06/11 15:12:21;;;;;;;4.70;1.40;;;;;;;27.78;35.43;100833.84;20566537;28;20051;-67
2022/06/11 15:22:36;;;;;;;6.70;2.08;;;;;;;27.33;36.39;100828.44;20567965;28;20057;-70
2022/06/11 15:32:37;;;;;;;3.35;1.63;;;;;;;28.10;35.27;100827.66;20567128;28;20113;-68
2022/06/11 15:42:44;;;;;;;5.53;2.38;;;;;;;28.36;34.83;100823.72;20567466;28;20047;-68
2022/06/11 15:52:45;;;;;;;3.28;1.45;;;;;;;28.18;34.99;100822.50;20607014;23;20147;-77
2022/06/11 16:02:49;;;;;;;4.05;1.52;;;;;;;28.24;34.13;100813.91;20912263;28;20063;-76
2022/06/11 16:12:52;;;;;;;5.80;1.48;;;;;;;28.03;35.22;100816.56;20926715;28;20051;-76
2022/06/11 16:23:01;;;;;;;3.55;1.40;;;;;;;28.11;34.10;100811.38;20912137;28;20052;-76
2022/06/11 16:33:11;;;;;;;5.82;1.60;;;;;;;28.06;34.82;100815.44;20914342;28;20057;-80
2022/06/11 16:43:22;;;;;;;4.25;1.50;;;;;;;28.59;35.09;100812.81;20896997;28;20049;-80
2022/06/11 17:03:58;;;;;;;4.80;1.40;;;;;;;28.34;34.84;100797.88;20920788;28;20040;-80
2022/06/11 17:14:04;;;;;;;3.50;1.40;;;;;;;28.29;35.68;100810.84;20920361;28;20041;-81
2022/06/11 17:24:30;;;;;;;5.30;1.70;;;;;;;28.47;35.43;100793.16;20919510;28;20122;-80
2022/06/11 17:34:31;;;;;;;3.33;1.50;;;;;;;28.37;35.76;100793.09;20919133;28;20052;-81
2022/06/11 17:44:35;;;;;;;4.15;1.30;;;;;;;28.24;37.00;100803.13;20901717;28;20048;-82
2022/06/11 17:54:37;;;;;;;3.95;1.52;;;;;;;27.62;38.41;100801.91;20930078;28;20488;-82
2022/06/11 18:04:40;;;;;;;5.78;1.30;;;;;;;27.77;37.53;100796.28;20891242;28;20098;-80
2022/06/11 18:14:42;;;;;;;5.43;1.80;;;;;;;27.49;39.30;100803.88;20866531;28;20136;-80
2022/06/11 18:35:05;;;;;;;5.05;1.85;;;;;;;27.18;42.33;100810.84;20827983;28;20145;-80
2022/06/11 18:45:25;;;;;;;5.23;1.90;;;;;;;26.55;46.11;100814.84;20823520;28;20045;-80
2022/06/11 18:55:29;;;;;;;6.53;2.03;;;;;;;25.72;51.84;100823.56;20824200;28;20688;-81
2022/06/11 19:05:31;;;;;;;4.25;1.90;;;;;;;24.99;55.25;100823.41;20822762;28;20057;-81
2022/06/11 19:15:32;;;;;;;4.38;1.85;;;;;;;24.51;59.61;100820.44;20804535;28;20446;-80
2022/06/11 19:25:40;;;;;;;5.53;1.80;;;;;;;24.06;62.36;100825.16;20813045;28;20068;-81
2022/06/11 19:35:58;;;;;;;4.95;2.05;;;;;;;23.58;66.17;100832.66;20835151;28;20045;-81
2022/06/11 19:46:01;;;;;;;6.18;2.50;;;;;;;23.22;69.30;100836.66;20821995;28;20049;-80
2022/06/11 19:56:08;;;;;;;5.63;2.00;;;;;;;22.51;72.44;100850.66;20818760;28;20486;-80
2022/06/11 20:06:11;;;;;;;4.97;2.60;;;;;;;22.27;75.69;100860.94;20817284;28;20107;-81
2022/06/11 20:16:19;;;;;;;7.38;2.50;;;;;;;22.14;77.46;100865.28;20799472;28;20046;-81
2022/06/11 20:26:21;;;;;;;5.90;2.20;;;;;;;21.88;79.06;100871.16;20822294;28;20049;-80
2022/06/11 20:36:23;;;;;;;6.35;2.55;;;;;;;21.67;80.53;100876.75;20835824;28;20050;-80
2022/06/11 20:46:25;;;;;;;5.97;2.67;;;;;;;21.37;84.26;100881.06;20839892;28;20447;-81
2022/06/11 20:56:27;;;;;;;8.05;2.42;;;;;;;20.97;84.75;100875.94;20840823;28;20115;-81
2022/06/11 21:06:29;;;;;;;7.78;2.72;;;;;;;20.62;87.60;100871.56;20821945;28;20521;-82
2022/06/11 21:16:30;;;;;;;5.20;2.65;;;;;;;20.34;89.78;100875.53;20844489;28;20136;-80
2022/06/11 21:26:32;;;;;;;6.00;3.08;;;;;;;20.12;90.91;100866.88;20818531;28;20053;-78
2022/06/11 21:36:34;;;;;;;7.53;3.53;;;;;;;20.14;91.72;100873.00;20833063;28;20061;-79
2022/06/11 21:46:35;;;;;;;7.38;3.83;;;;;;;19.81;94.54;100875.44;20836149;28;20060;-79
2022/06/11 21:56:39;;;;;;;7.50;4.15;;;;;;;19.76;96.42;100872.13;20828875;22;20134;-73
2022/06/11 22:06:42;;;;;;;7.03;3.78;;;;;;;19.52;97.88;100877.59;20832419;28;20490;-73
2022/06/11 22:16:44;;;;;;;10.60;5.18;;;;;;;19.36;99.48;100879.22;20832657;28;20049;-72
2022/06/11 22:26:46;;;;;;;8.93;5.30;;;;;;;19.25;99.21;100870.84;20833973;28;20053;-73
2022/06/11 22:36:49;;;;;;;8.75;4.63;;;;;;;18.90;100.00;100887.38;20831712;28;20041;-72
2022/06/11 22:46:54;;;;;;;6.88;3.97;;;;;;;18.70;100.00;100893.53;20831888;28;20095;-73
2022/06/11 22:56:56;;;;;;;8.93;4.30;;;;;;;18.37;100.00;100884.28;20829942;28;20417;-73
2022/06/11 23:07:00;;;;;;;7.10;4.22;;;;;;;18.24;100.00;100886.53;20830038;28;20516;-73
2022/06/11 23:17:04;;;;;;;10.95;4.07;;;;;;;18.01;100.00;100874.19;20830101;28;20045;-74
2022/06/11 23:27:06;;;;;;;6.75;3.95;;;;;;;17.79;100.00;100891.84;20828973;28;20124;-73
2022/06/11 23:37:08;;;;;;;6.20;3.83;;;;;;;17.57;100.00;100895.25;20827986;28;20429;-73
2022/06/11 23:47:10;;;;;;;8.40;4.50;;;;;;;17.31;100.00;100892.69;20828404;28;20121;-73
2022/06/11 23:57:11;;;;;;;8.77;3.90;;;;;;;17.24;100.00;100896.47;20828252;28;20072;-74
